Terminal Aerodrome Forecast
Issued by NWS

Home | Current Version | Previous Version | Text Only | Print | Product List | Glossary On
Versions: 1 2 3 4 5 6 7 8 9 10 11 12 13 14 15 16
000
FTUS46 KSEW 180520
TAFHQM
TAF
KHQM 180520Z 1806/1906 11005KT P6SM -SHRA FEW023 OVC035
     FM181000 10006KT P6SM OVC035
     FM182100 15010KT P6SM OVC035=

USA.gov is the U.S. government's official web portal to all federal, state and local government web resources and services.